createdAt,value
2022-11-07T00:00:18.455Z,17.60
2022-11-07T00:03:21.826Z,18.70
2022-11-07T00:06:26.310Z,17.23
2022-11-07T00:09:29.656Z,19.30
2022-11-07T00:12:35.240Z,17.33
2022-11-07T00:15:38.170Z,18.80
2022-11-07T00:18:41.241Z,16.17
2022-11-07T00:21:46.133Z,18.23
2022-11-07T00:24:49.111Z,17.10
2022-11-07T00:27:52.373Z,16.30
2022-11-07T00:30:55.433Z,16.47
2022-11-07T00:33:58.990Z,20.50
2022-11-07T00:37:03.417Z,16.73
2022-11-07T00:40:09.000Z,18.07
2022-11-07T00:43:12.211Z,17.37
2022-11-07T00:46:17.578Z,16.17
2022-11-07T00:49:20.733Z,18.10
2022-11-07T00:52:24.994Z,17.53
2022-11-07T00:55:27.954Z,17.03
2022-11-07T00:58:31.674Z,19.20
2022-11-07T01:01:36.136Z,17.80
2022-11-07T01:04:57.206Z,17.10
2022-11-07T01:08:01.530Z,16.70
2022-11-07T01:11:07.505Z,18.07
2022-11-07T01:14:11.756Z,17.17
2022-11-07T01:17:14.690Z,17.43
2022-11-07T01:20:17.699Z,15.90
2022-11-07T01:23:22.853Z,16.00
2022-11-07T01:26:25.811Z,15.63
2022-11-07T01:29:28.759Z,16.73
2022-11-07T01:32:31.808Z,17.43
2022-11-07T01:35:36.004Z,18.23
2022-11-07T01:38:43.006Z,17.03
2022-11-07T01:41:46.174Z,19.97
2022-11-07T01:44:57.522Z,16.90
2022-11-07T01:48:03.050Z,16.53
2022-11-07T01:51:06.976Z,15.37
2022-11-07T01:54:13.221Z,16.03
2022-11-07T01:57:21.988Z,17.23
2022-11-07T02:00:26.223Z,16.13
2022-11-07T02:03:29.197Z,15.63
2022-11-07T02:06:40.801Z,16.57
2022-11-07T02:09:45.819Z,16.43
2022-11-07T02:12:48.978Z,16.23
2022-11-07T02:15:52.010Z,15.63
2022-11-07T02:18:55.699Z,15.60
2022-11-07T02:22:05.694Z,14.63
2022-11-07T02:25:13.227Z,16.70
2022-11-07T02:28:18.029Z,15.87
2022-11-07T02:31:21.042Z,16.97
2022-11-07T02:34:23.997Z,15.57
2022-11-07T02:37:31.372Z,14.97
2022-11-07T02:40:36.323Z,17.63
2022-11-07T02:43:42.517Z,16.00
2022-11-07T02:46:45.743Z,16.00
2022-11-07T02:49:48.915Z,15.87
2022-11-07T02:52:51.915Z,16.17
2022-11-07T02:55:56.240Z,15.70
2022-11-07T02:58:59.889Z,15.67
2022-11-07T03:02:02.962Z,16.83
2022-11-07T03:05:07.056Z,14.97
2022-11-07T03:08:10.052Z,15.83
2022-11-07T03:11:19.579Z,15.17
2022-11-07T03:14:22.613Z,14.63
2022-11-07T03:17:25.588Z,15.00
2022-11-07T03:20:28.675Z,15.63
2022-11-07T03:23:32.465Z,15.87
2022-11-07T03:26:36.938Z,14.87
2022-11-07T03:29:39.878Z,15.77
2022-11-07T03:32:43.204Z,15.43
2022-11-07T03:35:46.305Z,14.87
2022-11-07T03:38:49.241Z,14.13
2022-11-07T03:41:53.520Z,13.00
2022-11-07T03:44:56.531Z,14.17
2022-11-07T03:47:59.623Z,13.53
2022-11-07T03:51:02.938Z,13.77
2022-11-07T03:54:06.035Z,12.77
2022-11-07T03:57:10.321Z,14.27
2022-11-07T04:00:16.029Z,13.63
2022-11-07T04:03:19.109Z,14.03
2022-11-07T04:06:22.842Z,12.43
2022-11-07T04:09:25.824Z,11.93
2022-11-07T04:12:47.550Z,11.67
2022-11-07T04:16:11.314Z,11.57
2022-11-07T04:19:16.594Z,11.87
2022-11-07T04:22:20.418Z,11.73
2022-11-07T04:25:43.325Z,11.20
2022-11-07T04:28:46.628Z,11.70
2022-11-07T04:31:49.545Z,12.17
2022-11-07T04:34:52.758Z,11.27
2022-11-07T04:37:55.730Z,10.40
2022-11-07T04:40:59.358Z,11.77
2022-11-07T04:44:03.619Z,11.77
2022-11-07T04:47:06.549Z,12.27
2022-11-07T04:50:12.847Z,10.67
2022-11-07T04:53:18.794Z,10.63
2022-11-07T04:56:21.725Z,10.47
2022-11-07T04:59:26.088Z,11.13
2022-11-07T05:02:29.170Z,10.57
2022-11-07T05:05:32.311Z,10.00
2022-11-07T05:08:35.427Z,9.37
2022-11-07T05:11:41.195Z,9.53
2022-11-07T05:14:45.417Z,9.67
2022-11-07T05:17:48.409Z,10.20
2022-11-07T05:20:51.926Z,10.30
2022-11-07T05:23:54.850Z,11.27
2022-11-07T05:26:58.023Z,10.13
2022-11-07T05:30:02.362Z,10.83
2022-11-07T05:33:05.615Z,10.70
2022-11-07T05:36:14.827Z,9.90
2022-11-07T05:39:18.022Z,10.47
2022-11-07T05:42:20.935Z,10.90
2022-11-07T05:45:25.165Z,8.93
2022-11-07T05:48:28.581Z,10.90
2022-11-07T05:51:31.589Z,10.43
2022-11-07T05:54:34.501Z,9.67
2022-11-07T05:57:37.410Z,9.80
2022-11-07T06:00:42.172Z,10.70
2022-11-07T06:03:45.136Z,11.97
2022-11-07T06:06:48.336Z,10.17
2022-11-07T06:09:51.349Z,9.80
2022-11-07T06:13:02.060Z,9.30
2022-11-07T06:16:07.935Z,9.23
2022-11-07T06:19:10.862Z,9.37
2022-11-07T06:22:14.154Z,9.53
2022-11-07T06:25:17.329Z,9.47
2022-11-07T06:28:20.313Z,8.87
2022-11-07T06:31:24.644Z,9.67
2022-11-07T06:34:27.703Z,9.50
2022-11-07T06:37:30.631Z,9.17
2022-11-07T06:40:33.678Z,8.60
2022-11-07T06:43:37.207Z,9.03
2022-11-07T06:46:41.485Z,8.50
2022-11-07T06:49:44.422Z,8.37
2022-11-07T06:52:47.366Z,8.80
2022-11-07T06:55:50.538Z,8.43
2022-11-07T06:58:53.531Z,8.17
2022-11-07T07:01:57.874Z,7.93
2022-11-07T07:05:01.251Z,8.97
2022-11-07T07:08:05.293Z,8.30
2022-11-07T07:11:10.678Z,8.10
2022-11-07T07:14:13.874Z,8.50
2022-11-07T07:17:18.577Z,9.50
2022-11-07T07:20:21.660Z,9.33
2022-11-07T07:23:24.648Z,8.57
2022-11-07T07:26:28.393Z,9.00
2022-11-07T07:29:31.819Z,8.37
2022-11-07T07:32:37.662Z,7.67
2022-11-07T07:35:40.606Z,6.37
2022-11-07T07:38:43.625Z,8.20
2022-11-07T07:41:48.144Z,6.83
2022-11-07T07:44:56.454Z,6.10
2022-11-07T07:48:02.981Z,7.27
2022-11-07T07:51:06.313Z,6.57
2022-11-07T07:54:09.574Z,6.80
2022-11-07T07:57:12.556Z,6.50
2022-11-07T08:00:16.408Z,6.40
2022-11-07T08:03:20.726Z,6.03
2022-11-07T08:06:23.869Z,6.90
2022-11-07T08:09:26.781Z,5.83
2022-11-07T08:12:30.041Z,5.83
2022-11-07T08:15:33.175Z,6.20
2022-11-07T08:18:39.898Z,5.80
2022-11-07T08:21:44.871Z,6.03
2022-11-07T08:24:47.805Z,5.80
2022-11-07T08:27:51.176Z,5.87
2022-11-07T08:30:58.156Z,5.73
2022-11-07T08:34:02.679Z,5.23
2022-11-07T08:37:05.753Z,5.40
2022-11-07T08:40:10.411Z,4.77
2022-11-07T08:43:17.232Z,4.73
2022-11-07T08:46:20.500Z,4.50
2022-11-07T08:49:24.928Z,4.60
2022-11-07T08:52:27.860Z,4.80
2022-11-07T08:55:34.264Z,5.97
2022-11-07T08:58:38.344Z,5.60
2022-11-07T09:02:15.138Z,4.83
2022-11-07T09:05:06.315Z,5.47
2022-11-07T09:08:09.230Z,5.23
2022-11-07T09:11:15.427Z,4.30
2022-11-07T09:14:18.749Z,5.73
2022-11-07T09:17:21.754Z,4.37
2022-11-07T09:20:25.993Z,5.13
2022-11-07T09:23:29.005Z,4.80
2022-11-07T09:26:32.442Z,3.90
2022-11-07T09:29:36.071Z,3.87
2022-11-07T09:32:45.074Z,4.07
2022-11-07T09:35:50.237Z,4.63
2022-11-07T09:38:56.079Z,4.53
2022-11-07T09:42:07.333Z,3.87
2022-11-07T09:45:14.109Z,3.97
2022-11-07T09:48:24.589Z,4.57
2022-11-07T09:51:38.712Z,4.10
2022-11-07T09:54:47.201Z,4.00
2022-11-07T09:57:51.698Z,4.13
2022-11-07T10:00:58.622Z,4.50
2022-11-07T10:04:24.251Z,5.20
2022-11-07T10:07:38.136Z,5.77
2022-11-07T10:10:47.790Z,4.17
2022-11-07T10:14:03.122Z,4.37
2022-11-07T10:17:14.646Z,4.50
2022-11-07T10:20:31.994Z,3.93
2022-11-07T10:23:55.591Z,3.67
2022-11-07T10:26:59.118Z,4.00
2022-11-07T10:30:02.499Z,3.60
2022-11-07T10:33:15.217Z,3.70
2022-11-07T10:36:24.746Z,3.40
2022-11-07T10:39:32.763Z,4.63
2022-11-07T10:42:36.170Z,4.30
2022-11-07T10:45:40.222Z,3.80
2022-11-07T10:48:52.851Z,5.17
2022-11-07T10:52:07.721Z,4.67
2022-11-07T10:55:17.877Z,5.40
2022-11-07T10:58:23.509Z,3.37
2022-11-07T11:01:28.263Z,3.87
2022-11-07T11:04:33.430Z,4.40
2022-11-07T11:07:39.442Z,4.38
2022-11-07T11:10:43.958Z,3.40
2022-11-07T11:13:47.632Z,2.67
2022-11-07T11:16:55.027Z,3.40
2022-11-07T11:19:58.209Z,3.33
2022-11-07T11:23:01.980Z,3.55
2022-11-07T11:26:09.307Z,3.78
2022-11-07T11:29:21.408Z,2.85
2022-11-07T11:32:32.224Z,2.78
2022-11-07T11:35:42.354Z,3.55
2022-11-07T11:38:54.293Z,3.60
2022-11-07T11:42:00.034Z,2.92
2022-11-07T11:45:17.990Z,4.07
2022-11-07T11:48:25.927Z,2.92
2022-11-07T11:51:41.355Z,3.25
2022-11-07T11:54:46.056Z,3.10
2022-11-07T11:58:00.647Z,2.78
2022-11-07T12:01:15.357Z,2.97
2022-11-07T12:04:39.363Z,2.72
2022-11-07T12:07:57.324Z,3.70
2022-11-07T12:11:04.783Z,3.72
2022-11-07T12:14:57.360Z,4.57
2022-11-07T12:18:07.010Z,3.85
2022-11-07T12:21:24.827Z,4.47
2022-11-07T12:24:38.916Z,3.03
2022-11-07T12:27:49.171Z,3.22
2022-11-07T12:31:05.309Z,3.40
2022-11-07T12:34:26.840Z,3.22
2022-11-07T12:37:49.510Z,3.88
2022-11-07T12:41:00.858Z,3.20
2022-11-07T12:44:21.921Z,3.13
2022-11-07T12:47:46.506Z,3.47
2022-11-07T12:50:58.207Z,3.08
2022-11-07T12:54:20.619Z,2.75
2022-11-07T12:57:26.226Z,3.80
2022-11-07T13:00:30.666Z,4.10
2022-11-07T13:04:00.639Z,3.05
2022-11-07T13:07:11.583Z,3.83
2022-11-07T13:10:21.979Z,3.23
2022-11-07T13:13:36.256Z,2.63
2022-11-07T13:16:50.640Z,5.60
2022-11-07T13:20:03.645Z,4.30
2022-11-07T13:23:16.904Z,3.40
2022-11-07T13:29:53.379Z,3.57
2022-11-07T13:32:56.550Z,2.87
2022-11-07T13:36:15.318Z,3.23
2022-11-07T13:39:19.139Z,3.03
2022-11-07T13:42:26.951Z,3.63
2022-11-07T13:45:39.353Z,2.75
2022-11-07T13:48:50.167Z,3.70
2022-11-07T13:51:58.974Z,3.60
2022-11-07T13:55:09.485Z,3.33
2022-11-07T13:58:16.398Z,3.10
2022-11-07T14:01:19.693Z,3.03
2022-11-07T14:04:23.518Z,3.10
2022-11-07T14:07:28.462Z,4.03
2022-11-07T14:10:38.789Z,3.30
2022-11-07T14:13:42.234Z,3.97
2022-11-07T14:16:47.322Z,3.50
2022-11-07T14:19:50.247Z,4.30
2022-11-07T14:22:57.160Z,3.67
2022-11-07T14:26:03.568Z,3.93
2022-11-07T14:29:06.501Z,4.53
2022-11-07T14:32:18.489Z,3.80
2022-11-07T14:35:30.650Z,3.73
2022-11-07T14:38:35.268Z,2.93
2022-11-07T14:41:42.506Z,3.30
2022-11-07T14:44:54.459Z,3.00
2022-11-07T14:47:58.406Z,2.97
2022-11-07T14:51:03.227Z,3.53
2022-11-07T14:54:14.491Z,3.00
2022-11-07T14:57:18.087Z,3.27
2022-11-07T15:00:23.315Z,3.90
2022-11-07T15:03:35.548Z,3.40
2022-11-07T15:06:45.369Z,3.23
2022-11-07T15:09:51.339Z,2.97
2022-11-07T15:12:58.695Z,2.97
2022-11-07T15:16:05.689Z,3.93
2022-11-07T15:19:11.002Z,3.70
2022-11-07T15:22:29.910Z,3.53
2022-11-07T15:25:39.398Z,3.70
2022-11-07T15:28:47.882Z,3.77
2022-11-07T15:31:50.834Z,3.70
2022-11-07T15:35:23.015Z,3.20
2022-11-07T15:38:23.501Z,3.10
2022-11-07T15:41:27.783Z,3.73
2022-11-07T15:44:30.697Z,3.80
2022-11-07T15:47:34.166Z,4.40
2022-11-07T15:50:43.455Z,3.47
2022-11-07T15:53:46.532Z,5.13
2022-11-07T15:56:54.558Z,3.77
2022-11-07T16:00:02.639Z,3.60
2022-11-07T16:03:17.009Z,3.40
2022-11-07T16:06:30.848Z,3.73
2022-11-07T16:09:34.105Z,3.60
2022-11-07T16:12:38.378Z,3.17
2022-11-07T16:15:47.718Z,3.57
2022-11-07T16:18:53.610Z,3.40
2022-11-07T16:21:56.674Z,3.20
2022-11-07T16:24:59.688Z,3.87
2022-11-07T16:28:06.131Z,3.53
2022-11-07T16:31:09.064Z,3.63
2022-11-07T16:34:13.099Z,3.90
2022-11-07T16:37:16.329Z,4.20
2022-11-07T16:40:23.553Z,4.03
2022-11-07T16:43:27.831Z,4.20
2022-11-07T16:46:36.446Z,3.90
2022-11-07T16:49:39.730Z,4.50
2022-11-07T16:52:43.804Z,3.60
2022-11-07T16:55:53.529Z,3.83
2022-11-07T16:58:58.816Z,3.93
2022-11-07T17:02:02.075Z,3.40
2022-11-07T17:05:06.125Z,4.50
2022-11-07T17:08:17.523Z,3.30
2022-11-07T17:11:21.167Z,3.27
2022-11-07T17:14:25.433Z,5.83
2022-11-07T17:17:28.378Z,4.23
2022-11-07T17:20:50.502Z,3.90
2022-11-07T17:23:56.079Z,4.27
2022-11-07T17:26:59.728Z,4.07
2022-11-07T17:30:08.568Z,4.73
2022-11-07T17:33:11.930Z,4.17
2022-11-07T17:36:26.320Z,4.30
2022-11-07T17:39:29.424Z,3.97
2022-11-07T17:42:37.728Z,3.80
2022-11-07T17:45:42.787Z,4.70
2022-11-07T17:48:47.428Z,4.07
2022-11-07T17:51:52.724Z,4.83
2022-11-07T17:54:56.049Z,3.67
2022-11-07T17:57:58.951Z,4.77
2022-11-07T18:01:04.900Z,5.23
2022-11-07T18:04:09.842Z,4.80
2022-11-07T18:07:13.759Z,5.20
2022-11-07T18:10:17.943Z,4.43
2022-11-07T18:13:23.626Z,5.03
2022-11-07T18:16:32.121Z,4.53
2022-11-07T18:19:35.283Z,4.27
2022-11-07T18:22:38.493Z,4.70
2022-11-07T18:25:41.524Z,4.00
2022-11-07T18:28:46.265Z,3.87
2022-11-07T18:31:51.770Z,4.13
2022-11-07T18:34:54.821Z,4.93
2022-11-07T18:37:57.903Z,4.00
2022-11-07T18:41:03.859Z,4.93
2022-11-07T18:44:07.010Z,4.73
2022-11-07T18:47:12.136Z,5.40
2022-11-07T18:50:15.139Z,5.33
2022-11-07T18:53:19.782Z,5.43
2022-11-07T18:56:23.224Z,5.40
2022-11-07T18:59:27.292Z,5.87
2022-11-07T19:02:33.693Z,6.20
2022-11-07T19:05:41.065Z,5.10
2022-11-07T19:08:47.217Z,5.63
2022-11-07T19:11:50.270Z,5.03
2022-11-07T19:14:53.981Z,4.73
2022-11-07T19:17:58.222Z,6.73
2022-11-07T19:21:01.648Z,4.50
2022-11-07T19:24:05.754Z,4.73
2022-11-07T19:27:09.272Z,4.80
2022-11-07T19:30:15.276Z,4.83
2022-11-07T19:33:20.253Z,4.57
2022-11-07T19:36:24.013Z,5.33
2022-11-07T19:39:27.217Z,5.13
2022-11-07T19:42:31.343Z,4.93
2022-11-07T19:45:34.516Z,4.67
2022-11-07T19:48:38.842Z,4.73
2022-11-07T19:51:45.043Z,4.57
2022-11-07T19:54:50.614Z,4.47
2022-11-07T19:57:54.031Z,4.67
2022-11-07T20:00:56.994Z,4.83
2022-11-07T20:04:02.514Z,5.67
2022-11-07T20:07:05.843Z,4.67
2022-11-07T20:10:10.063Z,5.77
2022-11-07T20:13:13.089Z,5.13
2022-11-07T20:16:17.049Z,5.67
2022-11-07T20:19:21.420Z,3.90
2022-11-07T20:22:24.398Z,3.97
2022-11-07T20:25:27.564Z,5.20
2022-11-07T20:28:30.639Z,4.40
2022-11-07T20:31:37.659Z,4.80
2022-11-07T20:34:41.922Z,5.90
2022-11-07T20:37:44.972Z,4.90
2022-11-07T20:40:48.009Z,5.13
2022-11-07T20:43:55.778Z,4.43
2022-11-07T20:46:58.793Z,5.13
2022-11-07T20:50:03.069Z,4.83
2022-11-07T20:53:06.057Z,4.50
2022-11-07T20:56:11.229Z,5.33
2022-11-07T20:59:14.241Z,6.07
2022-11-07T21:02:18.105Z,4.80
2022-11-07T21:05:22.397Z,4.20
2022-11-07T21:08:26.058Z,4.27
2022-11-07T21:11:30.444Z,5.23
2022-11-07T21:14:33.456Z,4.50
2022-11-07T21:17:36.974Z,4.63
2022-11-07T21:20:41.909Z,4.17
2022-11-07T21:23:45.473Z,5.00
2022-11-07T21:26:48.537Z,4.23
2022-11-07T21:29:52.013Z,4.47
2022-11-07T21:32:55.049Z,4.30
2022-11-07T21:35:59.459Z,4.03
2022-11-07T21:39:03.290Z,3.70
2022-11-07T21:42:06.704Z,5.40
2022-11-07T21:45:11.986Z,4.73
2022-11-07T21:48:16.539Z,4.87
2022-11-07T21:51:23.782Z,3.97
2022-11-07T21:54:26.749Z,4.87
2022-11-07T21:57:29.960Z,4.07
2022-11-07T22:00:36.297Z,5.00
2022-11-07T22:07:04.593Z,4.23
2022-11-07T22:10:09.053Z,4.33
2022-11-07T22:13:12.740Z,4.03
2022-11-07T22:16:18.462Z,5.17
2022-11-07T22:19:21.577Z,3.97
2022-11-07T22:22:26.074Z,5.23
2022-11-07T22:25:29.115Z,5.37
2022-11-07T22:28:32.147Z,4.23
2022-11-07T22:31:36.166Z,5.20
2022-11-07T22:34:39.388Z,4.47
2022-11-07T22:37:43.696Z,4.20
2022-11-07T22:40:47.474Z,4.67
2022-11-07T22:43:51.147Z,5.27
2022-11-07T22:46:54.147Z,4.57
2022-11-07T22:49:57.407Z,4.30
2022-11-07T22:53:02.071Z,3.97
2022-11-07T22:56:08.976Z,3.97
2022-11-07T22:59:13.570Z,4.10
2022-11-07T23:02:16.809Z,4.63
2022-11-07T23:05:19.943Z,4.23
2022-11-07T23:08:25.689Z,4.07
2022-11-07T23:11:48.243Z,4.33
2022-11-07T23:14:52.158Z,4.30
2022-11-07T23:17:55.122Z,4.73
2022-11-07T23:21:10.482Z,4.63
2022-11-07T23:24:15.634Z,4.67
2022-11-07T23:27:19.559Z,3.90
2022-11-07T23:30:22.860Z,4.17
2022-11-07T23:33:25.872Z,5.00
2022-11-07T23:36:28.894Z,4.90
2022-11-07T23:39:33.349Z,4.00
2022-11-07T23:42:36.449Z,4.60
2022-11-07T23:45:57.119Z,4.63
2022-11-07T23:49:17.537Z,4.60
2022-11-07T23:52:20.772Z,3.93
2022-11-07T23:55:42.356Z,4.17
2022-11-07T23:59:03.430Z,3.73
